Terminal Aerodrome Forecast
Issued by NWS

Home | Current Version | Previous Version | Text Only | Print | Product List | Glossary On
Versions: 1 2 3 4 5 6 7 8 9 10 11 12 13 14 15 16
508
FTUS43 KPAH 270520
TAFCGI
TAF
KCGI 270520Z 2706/2806 00000KT P6SM SCT150 BKN250
     FM270800 00000KT 4SM BR SCT050 BKN100
      TEMPO 2709/2713 2SM BR SCT004
     FM271500 VRB04KT P6SM SCT045=

USA.gov is the U.S. government's official web portal to all federal, state and local government web resources and services.